createdAt,value
2023-01-26T00:02:08.298Z,20.25
2023-01-26T00:04:41.722Z,20.13
2023-01-26T00:07:16.689Z,14.00
2023-01-26T00:09:49.985Z,17.25
2023-01-26T00:12:23.586Z,16.38
2023-01-26T00:14:57.345Z,16.05
2023-01-26T00:17:30.836Z,17.98
2023-01-26T00:20:04.032Z,18.25
2023-01-26T00:22:38.918Z,16.92
2023-01-26T00:25:12.787Z,20.48
2023-01-26T00:30:19.825Z,20.75
2023-01-26T00:32:53.102Z,14.85
2023-01-26T00:35:26.417Z,17.60
2023-01-26T00:38:01.033Z,21.02
2023-01-26T00:40:34.528Z,13.57
2023-01-26T00:43:07.894Z,14.80
2023-01-26T00:45:41.103Z,16.70
2023-01-26T00:48:14.609Z,16.10
2023-01-26T00:50:47.827Z,22.40
2023-01-26T00:53:22.418Z,17.52
2023-01-26T00:55:58.149Z,17.10
2023-01-26T00:58:31.483Z,18.40
2023-01-26T01:01:05.279Z,20.00
2023-01-26T01:03:38.486Z,19.95
2023-01-26T01:06:11.801Z,19.83
2023-01-26T01:08:46.476Z,19.17
2023-01-26T01:11:20.066Z,19.20
2023-01-26T01:13:53.977Z,14.70
2023-01-26T01:19:02.037Z,14.35
2023-01-26T01:21:36.411Z,16.95
2023-01-26T01:24:11.430Z,19.77
2023-01-26T01:26:45.038Z,21.33
2023-01-26T01:29:18.493Z,17.70
2023-01-26T01:31:51.834Z,17.40
2023-01-26T01:34:25.088Z,19.08
2023-01-26T01:36:58.831Z,18.55
2023-01-26T01:39:33.495Z,14.65
2023-01-26T01:42:07.046Z,18.08
2023-01-26T01:44:40.391Z,19.45
2023-01-26T01:47:19.512Z,18.45
2023-01-26T01:49:55.135Z,14.63
2023-01-26T01:52:32.220Z,14.48
2023-01-26T01:55:11.574Z,21.02
2023-01-26T01:57:53.291Z,17.75
2023-01-26T02:00:27.679Z,25.05
2023-01-26T02:03:16.697Z,16.73
2023-01-26T02:05:57.363Z,19.33
2023-01-26T02:08:34.716Z,18.77
2023-01-26T02:11:12.500Z,19.90
2023-01-26T02:13:49.686Z,16.52
2023-01-26T02:16:23.160Z,16.30
2023-01-26T02:18:56.507Z,18.67
2023-01-26T02:21:31.410Z,17.92
2023-01-26T02:24:17.452Z,15.50
2023-01-26T02:26:52.038Z,18.48
2023-01-26T02:29:25.363Z,20.05
2023-01-26T02:31:59.104Z,17.80
2023-01-26T02:37:05.896Z,17.08
2023-01-26T02:39:47.295Z,17.13
2023-01-26T02:42:41.927Z,17.65
2023-01-26T02:45:17.848Z,13.77
2023-01-26T02:47:51.144Z,17.52
2023-01-26T02:50:23.833Z,18.15
2023-01-26T02:52:57.762Z,17.80
2023-01-26T02:55:31.364Z,20.10
2023-01-26T02:58:06.798Z,17.65
2023-01-26T03:00:42.144Z,24.48
2023-01-26T03:03:19.678Z,17.02
2023-01-26T03:05:53.469Z,16.58
2023-01-26T03:08:27.255Z,17.45
2023-01-26T03:11:00.695Z,17.25
2023-01-26T03:13:36.271Z,18.40
2023-01-26T03:16:12.013Z,22.08
2023-01-26T03:19:02.587Z,17.17
2023-01-26T03:21:52.936Z,16.85
2023-01-26T03:24:52.807Z,19.48
2023-01-26T03:27:29.142Z,17.20
2023-01-26T03:30:03.911Z,18.77
2023-01-26T03:32:37.308Z,21.40
2023-01-26T03:35:15.998Z,19.40
2023-01-26T03:37:54.787Z,16.30
2023-01-26T03:40:46.221Z,15.32
2023-01-26T03:43:36.740Z,15.43
2023-01-26T03:46:29.187Z,13.52
2023-01-26T03:49:20.396Z,13.02
2023-01-26T03:52:11.239Z,12.85
2023-01-26T03:55:02.243Z,16.27
2023-01-26T03:57:35.536Z,16.75
2023-01-26T04:00:10.402Z,17.17
2023-01-26T04:03:03.004Z,16.00
2023-01-26T04:05:54.059Z,16.90
2023-01-26T04:08:28.069Z,13.25
2023-01-26T04:11:01.336Z,16.23
2023-01-26T04:13:52.580Z,15.00
2023-01-26T04:16:43.972Z,15.63
2023-01-26T04:19:36.387Z,22.77
2023-01-26T04:22:09.688Z,14.63
2023-01-26T04:24:43.053Z,16.67
2023-01-26T04:27:16.505Z,19.08
2023-01-26T04:29:50.093Z,14.15
2023-01-26T04:32:23.470Z,17.10
2023-01-26T04:34:58.067Z,15.38
2023-01-26T04:37:31.451Z,16.48
2023-01-26T04:40:05.420Z,15.63
2023-01-26T04:42:38.868Z,14.90
2023-01-26T04:45:12.791Z,16.75
2023-01-26T04:47:46.542Z,15.07
2023-01-26T04:50:21.429Z,17.08
2023-01-26T04:52:54.876Z,13.88
2023-01-26T04:55:28.453Z,14.95
2023-01-26T04:58:03.643Z,17.55
2023-01-26T05:00:37.182Z,17.05
2023-01-26T05:03:10.628Z,15.98
2023-01-26T05:05:46.068Z,23.55
2023-01-26T05:08:20.569Z,14.45
2023-01-26T05:10:53.843Z,19.90
2023-01-26T05:13:27.734Z,18.83
2023-01-26T05:18:35.466Z,16.08
2023-01-26T05:21:12.104Z,24.25
2023-01-26T05:23:45.324Z,20.70
2023-01-26T05:26:18.833Z,25.23
2023-01-26T05:31:25.606Z,17.73
2023-01-26T05:36:33.749Z,20.30
2023-01-26T05:39:07.143Z,24.00
2023-01-26T05:41:40.527Z,15.13
2023-01-26T05:44:13.862Z,17.77
2023-01-26T05:46:47.290Z,18.98
2023-01-26T05:49:21.223Z,18.70
2023-01-26T05:54:29.244Z,20.13
2023-01-26T05:57:02.433Z,17.67
2023-01-26T05:59:35.757Z,20.95
2023-01-26T06:02:09.074Z,18.52
2023-01-26T06:04:42.585Z,20.00
2023-01-26T06:07:18.848Z,23.35
2023-01-26T06:09:52.121Z,22.58
2023-01-26T06:12:25.351Z,21.35
2023-01-26T06:14:58.882Z,21.83
2023-01-26T06:17:32.176Z,22.40
2023-01-26T06:20:06.611Z,26.98
2023-01-26T06:22:41.500Z,28.95
2023-01-26T06:25:14.788Z,24.27
2023-01-26T06:27:48.277Z,25.52
2023-01-26T06:30:21.987Z,26.15
2023-01-26T06:32:55.279Z,28.77
2023-01-26T06:35:28.994Z,24.40
2023-01-26T06:40:37.525Z,24.27
2023-01-26T06:43:11.104Z,23.70
2023-01-26T06:45:44.295Z,24.95
2023-01-26T06:48:17.504Z,29.80
2023-01-26T06:50:52.655Z,37.95
2023-01-26T06:53:35.232Z,33.67
2023-01-26T06:56:08.703Z,33.95
2023-01-26T06:58:42.274Z,37.38
2023-01-26T07:01:17.685Z,34.88
2023-01-26T07:03:51.661Z,43.00
2023-01-26T07:06:25.242Z,39.60
2023-01-26T07:09:00.480Z,29.92
2023-01-26T07:11:33.883Z,35.33
2023-01-26T07:14:07.475Z,38.35
2023-01-26T07:16:41.340Z,29.08
2023-01-26T07:19:15.187Z,31.80
2023-01-26T07:21:49.636Z,28.77
2023-01-26T07:24:24.339Z,25.98
2023-01-26T07:26:58.943Z,22.05
2023-01-26T07:29:32.364Z,27.88
2023-01-26T07:32:06.630Z,26.13
2023-01-26T07:34:40.115Z,28.88
2023-01-26T07:37:13.495Z,36.53
2023-01-26T07:39:49.145Z,28.13
2023-01-26T07:42:22.723Z,28.55
2023-01-26T07:44:56.040Z,23.85
2023-01-26T07:47:29.521Z,25.67
2023-01-26T07:52:36.656Z,20.13
2023-01-26T07:55:11.484Z,34.88
2023-01-26T07:57:44.790Z,32.75
2023-01-26T08:00:19.488Z,22.73
2023-01-26T08:02:52.796Z,25.33
2023-01-26T08:08:00.595Z,27.42
2023-01-26T08:10:35.466Z,28.17
2023-01-26T08:13:10.480Z,28.23
2023-01-26T08:15:44.094Z,25.13
2023-01-26T08:18:17.454Z,25.88
2023-01-26T08:20:52.276Z,37.15
2023-01-26T08:23:25.838Z,31.35
2023-01-26T08:26:04.080Z,34.08
2023-01-26T08:28:38.008Z,42.95
2023-01-26T08:33:46.566Z,34.97
2023-01-26T08:36:22.584Z,32.47
2023-01-26T08:38:56.098Z,26.48
2023-01-26T08:41:31.449Z,29.40
2023-01-26T08:44:04.830Z,37.08
2023-01-26T08:46:38.229Z,31.85
2023-01-26T08:49:11.857Z,34.97
2023-01-26T08:54:18.431Z,28.88
2023-01-26T08:56:54.665Z,30.67
2023-01-26T08:59:28.226Z,32.05
2023-01-26T09:02:01.462Z,33.65
2023-01-26T09:04:35.143Z,27.33
2023-01-26T09:07:08.936Z,25.45
2023-01-26T09:09:42.207Z,31.05
2023-01-26T09:12:17.667Z,30.92
2023-01-26T09:14:51.541Z,32.45
2023-01-26T09:17:24.856Z,24.63
2023-01-26T09:19:58.326Z,23.67
2023-01-26T09:25:06.453Z,31.45
2023-01-26T09:27:41.200Z,24.33
2023-01-26T09:30:15.452Z,44.53
2023-01-26T09:32:48.805Z,33.28
2023-01-26T09:35:22.290Z,37.28
2023-01-26T09:37:56.047Z,31.13
2023-01-26T09:40:40.036Z,34.22
2023-01-26T09:43:26.150Z,35.90
2023-01-26T09:46:10.058Z,38.70
2023-01-26T09:48:50.424Z,35.72
2023-01-26T09:51:29.449Z,34.55
2023-01-26T09:54:07.112Z,41.80
2023-01-26T09:56:41.213Z,38.25
2023-01-26T09:59:25.384Z,47.03
2023-01-26T10:02:06.638Z,39.50
2023-01-26T10:04:44.617Z,39.63
2023-01-26T10:07:18.082Z,35.35
2023-01-26T10:09:53.433Z,42.28
2023-01-26T10:12:31.614Z,62.65
2023-01-26T10:15:17.330Z,55.40
2023-01-26T10:17:55.065Z,42.95
2023-01-26T10:20:32.847Z,39.10
2023-01-26T10:23:13.253Z,47.72
2023-01-26T10:25:48.067Z,48.03
2023-01-26T10:28:28.928Z,48.90
2023-01-26T10:31:08.380Z,46.25
2023-01-26T10:33:50.148Z,40.97
2023-01-26T10:36:24.476Z,40.75
2023-01-26T10:39:05.519Z,47.70
2023-01-26T10:41:39.277Z,50.78
2023-01-26T10:44:26.639Z,38.22
2023-01-26T10:47:07.827Z,37.38
2023-01-26T10:49:41.246Z,37.17
2023-01-26T10:52:18.597Z,39.22
2023-01-26T10:55:10.634Z,36.95
2023-01-26T10:57:44.348Z,35.67
2023-01-26T11:00:25.849Z,37.72
2023-01-26T11:03:08.089Z,48.60
2023-01-26T11:05:41.331Z,51.13
2023-01-26T11:08:33.945Z,39.00
2023-01-26T11:11:10.566Z,37.63
2023-01-26T11:13:44.822Z,43.83
2023-01-26T11:19:00.842Z,44.53
2023-01-26T11:21:41.530Z,31.45
2023-01-26T11:24:23.303Z,33.67
2023-01-26T11:27:23.841Z,28.90
2023-01-26T11:30:24.564Z,24.13
2023-01-26T11:33:02.559Z,29.88
2023-01-26T11:35:52.613Z,26.58
2023-01-26T11:38:41.328Z,25.65
2023-01-26T11:41:31.340Z,22.17
2023-01-26T11:44:52.023Z,25.20
2023-01-26T11:47:40.880Z,21.88
2023-01-26T11:50:29.828Z,22.98
2023-01-26T11:53:28.212Z,20.35
2023-01-26T11:56:22.398Z,18.08
2023-01-26T11:58:59.896Z,29.85
2023-01-26T12:01:39.323Z,27.08
2023-01-26T12:04:19.187Z,31.08
2023-01-26T12:06:59.129Z,28.38
2023-01-26T12:09:38.740Z,36.25
2023-01-26T12:12:19.197Z,31.75
2023-01-26T12:14:58.807Z,23.52
2023-01-26T12:17:41.955Z,26.45
2023-01-26T12:20:30.213Z,26.70
2023-01-26T12:23:07.107Z,32.53
2023-01-26T12:25:46.497Z,44.83
2023-01-26T12:28:24.104Z,57.83
2023-01-26T12:31:05.557Z,36.65
2023-01-26T12:33:39.579Z,30.65
2023-01-26T12:36:24.276Z,27.60
2023-01-26T12:39:13.976Z,55.78
2023-01-26T12:42:15.216Z,34.85
2023-01-26T12:44:53.690Z,35.22
2023-01-26T12:47:31.697Z,36.22
2023-01-26T12:50:12.795Z,34.88
2023-01-26T12:52:50.372Z,30.48
2023-01-26T12:55:27.777Z,38.95
2023-01-26T12:58:05.131Z,29.85
2023-01-26T13:00:40.378Z,28.45
2023-01-26T13:03:20.025Z,23.98
2023-01-26T13:05:58.711Z,25.35
2023-01-26T13:08:53.605Z,24.50
2023-01-26T13:11:48.739Z,17.88
2023-01-26T13:14:33.302Z,30.35
2023-01-26T13:17:50.174Z,27.35
2023-01-26T13:20:49.416Z,27.58
2023-01-26T13:23:43.593Z,21.48
2023-01-26T13:26:44.532Z,22.85
2023-01-26T13:29:54.151Z,26.73
2023-01-26T13:33:05.936Z,26.27
2023-01-26T13:35:40.212Z,27.50
2023-01-26T13:38:29.150Z,27.15
2023-01-26T13:41:07.999Z,27.10
2023-01-26T13:43:45.461Z,33.50
2023-01-26T13:46:26.688Z,34.45
2023-01-26T13:49:00.013Z,29.13
2023-01-26T13:51:35.649Z,30.50
2023-01-26T13:54:14.567Z,36.60
2023-01-26T13:57:03.280Z,36.03
2023-01-26T13:59:50.171Z,34.50
2023-01-26T14:02:27.142Z,28.63
2023-01-26T14:05:02.081Z,24.95
2023-01-26T14:07:39.489Z,28.90
2023-01-26T14:10:19.639Z,26.10
2023-01-26T14:12:56.764Z,24.40
2023-01-26T14:15:33.864Z,20.88
2023-01-26T14:18:22.264Z,24.45
2023-01-26T14:21:05.145Z,26.90
2023-01-26T14:23:38.553Z,26.63
2023-01-26T14:26:20.073Z,27.55
2023-01-26T14:28:53.399Z,29.85
2023-01-26T14:31:28.128Z,26.20
2023-01-26T14:34:02.727Z,29.40
2023-01-26T14:36:39.355Z,32.45
2023-01-26T14:39:19.136Z,27.67
2023-01-26T14:41:52.464Z,29.65
2023-01-26T14:44:25.631Z,33.08
2023-01-26T14:47:03.623Z,32.47
2023-01-26T14:49:45.994Z,112.10
2023-01-26T14:52:25.327Z,45.42
2023-01-26T14:55:00.815Z,31.42
2023-01-26T14:57:34.629Z,25.83
2023-01-26T15:00:21.106Z,22.83
2023-01-26T15:02:56.800Z,29.95
2023-01-26T15:05:35.660Z,28.42
2023-01-26T15:08:21.088Z,25.35
2023-01-26T15:11:16.473Z,26.55
2023-01-26T15:13:54.154Z,21.40
2023-01-26T15:16:28.089Z,26.83
2023-01-26T15:21:39.842Z,32.17
2023-01-26T15:24:15.976Z,29.90
2023-01-26T15:26:51.603Z,26.88
2023-01-26T15:29:26.747Z,29.17
2023-01-26T15:32:00.338Z,26.55
2023-01-26T15:34:37.459Z,29.63
2023-01-26T15:37:29.759Z,31.98
2023-01-26T15:40:04.113Z,31.73
2023-01-26T15:42:37.868Z,33.80
2023-01-26T15:45:23.614Z,29.02
2023-01-26T15:47:57.114Z,34.03
2023-01-26T15:50:30.399Z,27.63
2023-01-26T15:53:05.298Z,31.77
2023-01-26T15:55:38.947Z,34.40
2023-01-26T15:58:12.400Z,31.65
2023-01-26T16:00:45.751Z,36.53
2023-01-26T16:03:22.238Z,30.80
2023-01-26T16:05:56.035Z,37.70
2023-01-26T16:13:37.510Z,41.40
2023-01-26T16:16:11.800Z,40.28
2023-01-26T16:18:45.457Z,40.40
2023-01-26T16:23:55.023Z,38.05
2023-01-26T16:26:29.110Z,38.72
2023-01-26T16:29:02.307Z,38.08
2023-01-26T16:31:37.006Z,39.30
2023-01-26T16:34:11.341Z,38.75
2023-01-26T16:36:44.820Z,39.22
2023-01-26T16:41:53.453Z,49.60
2023-01-26T16:44:26.736Z,42.05
2023-01-26T16:46:59.942Z,38.75
2023-01-26T16:49:33.953Z,44.80
2023-01-26T16:54:45.669Z,42.85
2023-01-26T16:57:18.984Z,37.45
2023-01-26T16:59:52.036Z,40.40
2023-01-26T17:02:28.713Z,39.08
2023-01-26T17:05:01.946Z,35.38
2023-01-26T17:10:12.256Z,27.75
2023-01-26T17:12:46.244Z,26.65
2023-01-26T17:17:53.392Z,28.70
2023-01-26T17:20:27.185Z,26.63
2023-01-26T17:23:00.955Z,29.40
2023-01-26T17:28:09.028Z,28.98
2023-01-26T17:30:42.212Z,34.20
2023-01-26T17:33:15.407Z,28.83
2023-01-26T17:35:48.887Z,26.17
2023-01-26T17:38:22.312Z,21.42
2023-01-26T17:40:57.755Z,26.08
2023-01-26T17:43:32.087Z,32.33
2023-01-26T17:46:07.975Z,28.65
2023-01-26T17:48:44.182Z,24.80
2023-01-26T17:51:19.796Z,26.85
2023-01-26T17:53:54.302Z,26.00
2023-01-26T17:56:30.829Z,26.58
2023-01-26T17:59:04.445Z,25.23
2023-01-26T18:01:37.898Z,27.48
2023-01-26T18:04:11.097Z,32.33
2023-01-26T18:06:44.392Z,38.28
2023-01-26T18:09:17.707Z,29.83
2023-01-26T18:11:52.833Z,44.25
2023-01-26T18:14:26.551Z,35.95
2023-01-26T18:19:33.184Z,26.38
2023-01-26T18:22:06.516Z,24.98
2023-01-26T18:24:40.421Z,20.92
2023-01-26T18:27:15.493Z,27.80
2023-01-26T18:29:49.182Z,22.63
2023-01-26T18:32:22.494Z,24.40
2023-01-26T18:34:56.733Z,23.92
2023-01-26T18:37:32.999Z,22.63
2023-01-26T18:40:09.812Z,23.25
2023-01-26T18:42:46.274Z,23.88
2023-01-26T18:45:21.078Z,22.27
2023-01-26T18:47:55.038Z,23.85
2023-01-26T18:53:03.655Z,28.67
2023-01-26T18:55:38.236Z,27.00
2023-01-26T18:58:13.419Z,23.65
2023-01-26T19:00:46.989Z,29.17
2023-01-26T19:03:20.854Z,27.80
2023-01-26T19:05:54.403Z,23.65
2023-01-26T19:08:28.897Z,19.42
2023-01-26T19:11:06.971Z,20.92
2023-01-26T19:13:43.543Z,17.42
2023-01-26T19:16:17.417Z,20.77
2023-01-26T19:21:27.786Z,18.00
2023-01-26T19:24:02.722Z,20.00
2023-01-26T19:26:36.408Z,16.10
2023-01-26T19:29:12.021Z,16.73
2023-01-26T19:31:45.882Z,25.65
2023-01-26T19:34:19.485Z,27.92
2023-01-26T19:36:53.464Z,29.67
2023-01-26T19:39:27.284Z,27.63
2023-01-26T19:42:00.665Z,29.10
2023-01-26T19:44:35.473Z,24.00
2023-01-26T19:47:09.164Z,22.30
2023-01-26T19:49:42.718Z,29.85
2023-01-26T19:52:16.332Z,30.98
2023-01-26T19:54:50.834Z,31.45
2023-01-26T19:57:25.819Z,29.35
2023-01-26T20:00:01.185Z,31.90
2023-01-26T20:02:35.662Z,22.70
2023-01-26T20:05:13.047Z,23.77
2023-01-26T20:07:48.026Z,22.52
2023-01-26T20:10:22.003Z,19.55
2023-01-26T20:12:57.510Z,16.30
2023-01-26T20:15:35.559Z,15.70
2023-01-26T20:18:09.261Z,17.58
2023-01-26T20:20:42.980Z,27.40
2023-01-26T20:25:51.615Z,17.85
2023-01-26T20:28:25.275Z,13.77
2023-01-26T20:31:06.862Z,14.10
2023-01-26T20:33:40.858Z,15.23
2023-01-26T20:36:17.683Z,10.40
2023-01-26T20:38:51.585Z,17.83
2023-01-26T20:41:27.387Z,12.05
2023-01-26T20:44:02.796Z,13.18
2023-01-26T20:46:40.320Z,12.93
2023-01-26T20:49:17.015Z,12.63
2023-01-26T20:51:50.489Z,8.30
2023-01-26T20:54:24.065Z,10.63
2023-01-26T20:56:57.576Z,10.70
2023-01-26T20:59:31.176Z,7.95
2023-01-26T21:02:06.678Z,9.48
2023-01-26T21:04:40.635Z,10.23
2023-01-26T21:09:47.209Z,10.38
2023-01-26T21:12:21.218Z,15.23
2023-01-26T21:14:55.181Z,10.73
2023-01-26T21:17:30.125Z,13.73
2023-01-26T21:20:03.403Z,12.55
2023-01-26T21:22:36.820Z,18.70
2023-01-26T21:25:11.496Z,18.67
2023-01-26T21:27:44.647Z,15.18
2023-01-26T21:30:18.806Z,15.98
2023-01-26T21:32:53.878Z,15.48
2023-01-26T21:35:27.755Z,14.65
2023-01-26T21:38:01.445Z,14.15
2023-01-26T21:40:34.548Z,11.35
2023-01-26T21:43:08.104Z,11.02
2023-01-26T21:45:56.393Z,12.18
2023-01-26T21:48:35.976Z,11.95
2023-01-26T21:51:27.243Z,11.70
2023-01-26T21:54:00.869Z,9.38
2023-01-26T21:56:35.283Z,11.38
2023-01-26T21:59:10.631Z,11.13
2023-01-26T22:01:46.381Z,12.73
2023-01-26T22:04:24.002Z,13.55
2023-01-26T22:06:58.198Z,12.63
2023-01-26T22:09:31.571Z,13.93
2023-01-26T22:12:05.921Z,17.83
2023-01-26T22:14:39.779Z,16.42
2023-01-26T22:17:13.604Z,14.60
2023-01-26T22:19:48.672Z,12.38
2023-01-26T22:22:22.179Z,9.23
2023-01-26T22:24:55.497Z,14.02
2023-01-26T22:27:29.149Z,11.05
2023-01-26T22:30:02.933Z,12.70
2023-01-26T22:32:36.258Z,10.95
2023-01-26T22:35:11.274Z,12.32
2023-01-26T22:37:44.790Z,12.02
2023-01-26T22:40:17.881Z,12.50
2023-01-26T22:42:52.226Z,14.80
2023-01-26T22:45:25.585Z,14.07
2023-01-26T22:47:58.854Z,14.15
2023-01-26T22:50:33.487Z,12.05
2023-01-26T22:53:06.905Z,14.35
2023-01-26T22:55:42.307Z,12.77
2023-01-26T22:58:15.416Z,11.77
2023-01-26T23:00:48.581Z,13.63
2023-01-26T23:03:22.654Z,12.95
2023-01-26T23:06:01.235Z,11.95
2023-01-26T23:08:35.238Z,14.50
2023-01-26T23:11:10.488Z,14.75
2023-01-26T23:13:45.398Z,18.63
2023-01-26T23:16:21.363Z,18.58
2023-01-26T23:18:57.388Z,18.35
2023-01-26T23:21:32.467Z,9.65
2023-01-26T23:24:06.399Z,13.88
2023-01-26T23:26:39.772Z,13.13
2023-01-26T23:29:12.940Z,15.15
2023-01-26T23:31:46.156Z,12.95
2023-01-26T23:34:19.611Z,11.55
2023-01-26T23:36:54.445Z,11.80
2023-01-26T23:39:27.870Z,11.05
2023-01-26T23:42:01.086Z,11.45
2023-01-26T23:44:34.346Z,14.38
2023-01-26T23:47:07.457Z,12.25
2023-01-26T23:49:40.717Z,11.73
2023-01-26T23:52:15.318Z,10.80
2023-01-26T23:54:48.877Z,11.30
2023-01-26T23:57:22.178Z,11.95
2023-01-26T23:59:55.297Z,13.00
